createdAt,value
2022-08-11T00:00:32.555Z,64.61
2022-08-11T00:01:32.205Z,71.70
2022-08-11T00:02:32.423Z,54.62
2022-08-11T00:03:43.212Z,47.70
2022-08-11T00:04:34.560Z,74.93
2022-08-11T00:05:32.914Z,47.53
2022-08-11T00:06:33.055Z,47.70
2022-08-11T00:07:33.222Z,47.53
2022-08-11T00:08:33.393Z,48.66
2022-08-11T00:09:39.382Z,48.34
2022-08-11T00:10:34.690Z,47.70
2022-08-11T00:11:33.829Z,48.02
2022-08-11T00:12:34.106Z,48.50
2022-08-11T00:13:34.570Z,68.16
2022-08-11T00:14:37.667Z,68.80
2022-08-11T00:15:35.566Z,48.02
2022-08-11T00:16:35.562Z,52.53
2022-08-11T00:17:34.954Z,72.67
2022-08-11T00:18:35.133Z,76.86
2022-08-11T00:20:12.424Z,74.93
2022-08-11T00:20:36.550Z,74.12
2022-08-11T00:22:03.909Z,52.69
2022-08-11T00:22:37.757Z,49.31
2022-08-11T00:23:37.063Z,49.63
2022-08-11T00:24:53.422Z,47.86
2022-08-11T00:25:37.461Z,55.43
2022-08-11T00:26:37.563Z,55.91
2022-08-11T00:27:37.576Z,71.70
2022-08-11T00:28:37.572Z,49.15
2022-08-11T00:29:37.102Z,51.72
2022-08-11T00:30:38.335Z,50.92
2022-08-11T00:31:37.486Z,48.34
2022-08-11T00:32:37.898Z,50.11
2022-08-11T00:33:44.215Z,48.98
2022-08-11T00:34:39.074Z,48.66
2022-08-11T00:35:55.088Z,52.85
2022-08-11T00:36:39.568Z,55.75
2022-08-11T00:37:38.684Z,49.31
2022-08-11T00:38:39.077Z,50.43
2022-08-11T00:39:39.001Z,55.91
2022-08-11T00:40:39.129Z,48.02
2022-08-11T00:41:39.287Z,48.34
2022-08-11T00:42:39.550Z,47.70
2022-08-11T00:43:40.082Z,48.34
2022-08-11T00:44:39.829Z,59.46
2022-08-11T00:45:40.000Z,51.88
2022-08-11T00:46:40.581Z,51.08
2022-08-11T00:47:40.378Z,69.13
2022-08-11T00:48:40.514Z,50.11
2022-08-11T00:49:40.639Z,73.15
2022-08-11T00:50:40.779Z,52.37
2022-08-11T00:51:56.736Z,48.50
2022-08-11T00:52:42.024Z,48.50
2022-08-11T00:53:43.072Z,52.05
2022-08-11T00:54:41.403Z,48.66
2022-08-11T00:55:41.519Z,75.89
2022-08-11T00:56:42.742Z,47.53
2022-08-11T00:57:41.964Z,61.71
2022-08-11T00:58:42.084Z,73.15
2022-08-11T00:59:43.074Z,55.91
2022-08-11T01:00:42.470Z,59.62
2022-08-11T01:01:42.623Z,68.48
2022-08-11T01:02:42.742Z,74.60
2022-08-11T01:03:42.907Z,48.02
2022-08-11T01:04:43.055Z,48.98
2022-08-11T01:05:43.207Z,48.98
2022-08-11T01:06:44.076Z,55.91
2022-08-11T01:08:01.334Z,47.86
2022-08-11T01:08:44.673Z,48.66
2022-08-11T01:09:43.912Z,47.86
2022-08-11T01:10:44.162Z,47.21
2022-08-11T01:11:55.439Z,55.43
2022-08-11T01:12:46.079Z,47.86
2022-08-11T01:13:44.683Z,47.05
2022-08-11T01:14:44.832Z,47.53
2022-08-11T01:15:57.025Z,47.53
2022-08-11T01:16:46.171Z,48.18
2022-08-11T01:17:45.591Z,67.68
2022-08-11T01:18:45.598Z,48.82
2022-08-11T01:20:48.123Z,48.02
2022-08-11T01:20:49.606Z,58.97
2022-08-11T01:21:47.137Z,70.25
2022-08-11T01:22:46.596Z,50.27
2022-08-11T01:23:47.082Z,48.02
2022-08-11T01:24:46.722Z,48.34
2022-08-11T01:25:57.690Z,76.05
2022-08-11T01:26:48.063Z,56.72
2022-08-11T01:27:47.302Z,47.70
2022-08-11T01:28:47.432Z,48.82
2022-08-11T01:29:49.339Z,51.08
2022-08-11T01:30:47.763Z,70.09
2022-08-11T01:31:49.584Z,48.98
2022-08-11T01:32:48.172Z,71.70
2022-08-11T01:33:49.084Z,51.72
2022-08-11T01:34:48.594Z,49.15
2022-08-11T01:35:48.611Z,74.12
2022-08-11T01:36:53.482Z,51.88
2022-08-11T01:37:49.886Z,76.38
2022-08-11T01:38:50.086Z,55.11
2022-08-11T01:39:49.408Z,65.26
2022-08-11T01:40:49.573Z,68.64
2022-08-11T01:41:49.738Z,73.96
2022-08-11T01:42:49.867Z,48.98
2022-08-11T01:43:50.081Z,48.18
2022-08-11T01:44:50.201Z,56.72
2022-08-11T01:45:50.335Z,49.31
2022-08-11T01:46:50.447Z,48.18
2022-08-11T01:47:52.591Z,73.96
2022-08-11T01:48:50.880Z,48.50
2022-08-11T01:50:09.700Z,50.60
2022-08-11T01:50:52.229Z,51.56
2022-08-11T01:51:51.421Z,48.82
2022-08-11T01:52:51.565Z,48.34
2022-08-11T01:53:52.595Z,48.02
2022-08-11T01:54:52.589Z,50.43
2022-08-11T01:55:52.136Z,50.60
2022-08-11T01:56:53.089Z,49.47
2022-08-11T01:57:52.585Z,48.66
2022-08-11T01:58:52.713Z,73.15
2022-08-11T01:59:52.836Z,58.01
2022-08-11T02:00:53.068Z,71.54
2022-08-11T02:01:53.220Z,56.24
2022-08-11T02:02:53.388Z,51.88
2022-08-11T02:03:54.090Z,76.22
2022-08-11T02:04:54.614Z,72.19
2022-08-11T02:05:53.870Z,54.95
2022-08-11T02:06:54.007Z,52.21
2022-08-11T02:07:54.150Z,53.33
2022-08-11T02:08:54.360Z,49.31
2022-08-11T02:09:54.520Z,79.12
2022-08-11T02:10:55.600Z,77.18
2022-08-11T02:11:54.813Z,50.11
2022-08-11T02:12:55.949Z,68.16
2022-08-11T02:13:55.117Z,63.97
2022-08-11T02:15:05.412Z,74.77
2022-08-11T02:15:56.389Z,63.49
2022-08-11T02:16:55.509Z,77.18
2022-08-11T02:17:55.680Z,74.60
2022-08-11T02:18:55.857Z,56.56
2022-08-11T02:19:56.017Z,48.82
2022-08-11T02:20:56.169Z,72.99
2022-08-11T02:21:57.315Z,76.54
2022-08-11T02:22:56.444Z,73.80
2022-08-11T02:24:05.325Z,49.63
2022-08-11T02:24:57.727Z,67.03
2022-08-11T02:25:57.115Z,67.51
2022-08-11T02:26:57.029Z,77.02
2022-08-11T02:27:57.181Z,66.23
2022-08-11T02:28:57.344Z,70.74
2022-08-11T02:29:57.505Z,70.25
2022-08-11T02:30:57.662Z,73.80
2022-08-11T02:32:08.354Z,78.15
2022-08-11T02:32:58.962Z,48.18
2022-08-11T02:33:58.203Z,53.17
2022-08-11T02:34:59.367Z,71.38
2022-08-11T02:35:59.108Z,76.70
2022-08-11T02:36:58.770Z,65.10
2022-08-11T02:37:58.906Z,74.60
2022-08-11T02:38:59.111Z,74.12
2022-08-11T02:39:59.297Z,75.89
2022-08-11T02:40:59.625Z,71.38
2022-08-11T02:42:00.612Z,76.38
2022-08-11T02:42:59.846Z,72.83
2022-08-11T02:44:00.020Z,74.12
2022-08-11T02:45:01.105Z,74.77
2022-08-11T02:46:00.376Z,72.19
2022-08-11T02:47:00.520Z,58.49
2022-08-11T02:48:00.669Z,76.22
2022-08-11T02:49:01.843Z,69.93
2022-08-11T02:50:06.526Z,57.52
2022-08-11T02:51:02.131Z,62.68
2022-08-11T02:52:01.271Z,76.05
2022-08-11T02:53:01.444Z,68.16
2022-08-11T02:54:01.614Z,72.51
2022-08-11T02:55:02.610Z,77.83
2022-08-11T02:56:01.991Z,72.35
2022-08-11T02:57:02.157Z,74.12
2022-08-11T02:58:02.343Z,74.93
2022-08-11T02:59:02.508Z,72.83
2022-08-11T03:00:02.651Z,74.77
2022-08-11T03:01:02.795Z,77.18
2022-08-11T03:02:05.000Z,78.15
2022-08-11T03:03:03.118Z,75.25
2022-08-11T03:04:03.244Z,72.83
2022-08-11T03:05:03.629Z,72.35
2022-08-11T03:06:04.112Z,52.69
2022-08-11T03:07:03.733Z,75.57
2022-08-11T03:08:04.613Z,76.38
2022-08-11T03:09:04.101Z,74.60
2022-08-11T03:10:04.623Z,74.93
2022-08-11T03:11:04.374Z,79.60
2022-08-11T03:12:04.504Z,69.93
2022-08-11T03:13:04.649Z,75.73
2022-08-11T03:14:04.815Z,74.77
2022-08-11T03:15:04.963Z,76.70
2022-08-11T03:16:05.100Z,76.86
2022-08-11T03:17:06.115Z,75.57
2022-08-11T03:18:05.466Z,77.99
2022-08-11T03:19:05.590Z,78.31
2022-08-11T03:20:06.131Z,74.12
2022-08-11T03:21:05.862Z,75.57
2022-08-11T03:22:06.212Z,78.63
2022-08-11T03:23:06.183Z,77.18
2022-08-11T03:24:07.415Z,77.50
2022-08-11T03:25:09.881Z,76.38
2022-08-11T03:26:08.889Z,75.89
2022-08-11T03:27:07.122Z,77.34
2022-08-11T03:28:07.262Z,75.41
2022-08-11T03:29:07.411Z,79.92
2022-08-11T03:30:07.571Z,73.96
2022-08-11T03:31:07.741Z,74.28
2022-08-11T03:32:07.911Z,75.09
2022-08-11T03:33:08.046Z,78.47
2022-08-11T03:34:08.487Z,77.99
2022-08-11T03:35:08.418Z,77.50
2022-08-11T03:36:08.575Z,80.57
2022-08-11T03:37:16.805Z,74.60
2022-08-11T03:38:09.980Z,78.15
2022-08-11T03:39:09.153Z,77.67
2022-08-11T03:40:09.200Z,75.73
2022-08-11T03:42:02.241Z,77.50
2022-08-11T03:42:10.403Z,73.80
2022-08-11T03:43:10.829Z,78.63
2022-08-11T03:44:10.141Z,77.67
2022-08-11T03:45:10.131Z,76.70
2022-08-11T03:46:10.262Z,77.18
2022-08-11T03:47:10.390Z,77.50
2022-08-11T03:48:10.531Z,78.96
2022-08-11T03:49:10.693Z,76.54
2022-08-11T03:50:10.911Z,74.44
2022-08-11T03:51:11.040Z,73.96
2022-08-11T03:52:11.187Z,80.24
2022-08-11T03:53:11.312Z,77.83
2022-08-11T03:54:11.646Z,78.31
2022-08-11T03:55:11.777Z,87.50
2022-08-11T03:56:11.943Z,74.93
2022-08-11T03:57:12.080Z,82.82
2022-08-11T03:58:12.213Z,74.77
2022-08-11T03:59:12.362Z,76.54
2022-08-11T04:00:12.469Z,75.57
2022-08-11T04:01:12.751Z,76.22
2022-08-11T04:02:12.930Z,79.12
2022-08-11T04:03:13.063Z,76.38
2022-08-11T04:04:13.193Z,78.15
2022-08-11T04:05:14.134Z,74.44
2022-08-11T04:06:13.515Z,75.89
2022-08-11T04:07:17.538Z,76.22
2022-08-11T04:08:13.793Z,76.38
2022-08-11T04:09:13.957Z,77.02
2022-08-11T04:10:14.632Z,77.99
2022-08-11T04:11:14.315Z,78.63
2022-08-11T04:12:14.658Z,78.15
2022-08-11T04:13:15.651Z,78.15
2022-08-11T04:14:15.142Z,79.44
2022-08-11T04:15:15.036Z,76.54
2022-08-11T04:16:15.201Z,79.28
2022-08-11T04:17:15.345Z,76.38
2022-08-11T04:18:15.529Z,78.15
2022-08-11T04:19:15.683Z,74.93
2022-08-11T04:20:15.825Z,77.34
2022-08-11T04:21:15.987Z,78.79
2022-08-11T04:22:17.143Z,74.77
2022-08-11T04:24:34.607Z,78.47
2022-08-11T04:24:37.685Z,78.15
2022-08-11T04:25:18.594Z,74.12
2022-08-11T04:26:18.885Z,79.44
2022-08-11T04:27:17.054Z,76.70
2022-08-11T04:28:29.212Z,77.67
2022-08-11T04:29:18.367Z,77.67
2022-08-11T04:30:18.144Z,81.53
2022-08-11T04:31:50.884Z,78.31
2022-08-11T04:32:18.934Z,77.83
2022-08-11T04:33:19.201Z,78.15
2022-08-11T04:34:18.319Z,76.22
2022-08-11T04:35:18.476Z,77.02
2022-08-11T04:36:18.628Z,76.22
2022-08-11T04:37:18.779Z,78.15
2022-08-11T04:38:19.642Z,76.22
2022-08-11T04:39:19.189Z,75.25
2022-08-11T04:40:19.365Z,79.28
2022-08-11T04:41:19.531Z,77.18
2022-08-11T04:42:20.647Z,76.22
2022-08-11T04:43:20.652Z,77.34
2022-08-11T04:44:20.046Z,77.83
2022-08-11T04:45:20.671Z,86.53
2022-08-11T04:46:20.401Z,75.89
2022-08-11T04:47:20.535Z,74.77
2022-08-11T04:48:20.776Z,77.18
2022-08-11T04:49:26.218Z,78.31
2022-08-11T04:50:22.143Z,80.41
2022-08-11T04:51:21.364Z,75.89
2022-08-11T04:52:22.149Z,76.86
2022-08-11T04:53:21.630Z,77.99
2022-08-11T04:54:26.407Z,73.80
2022-08-11T04:55:23.986Z,76.38
2022-08-11T04:56:22.664Z,77.99
2022-08-11T04:57:22.419Z,76.70
2022-08-11T04:58:31.271Z,76.54
2022-08-11T04:59:24.160Z,76.70
2022-08-11T05:00:22.906Z,74.93
2022-08-11T05:01:23.085Z,77.34
2022-08-11T05:02:24.153Z,75.57
2022-08-11T05:03:23.415Z,77.83
2022-08-11T05:04:23.571Z,77.18
2022-08-11T05:05:24.653Z,76.70
2022-08-11T05:06:23.901Z,75.73
2022-08-11T05:07:24.653Z,77.02
2022-08-11T05:08:24.417Z,77.83
2022-08-11T05:09:24.304Z,77.02
2022-08-11T05:10:24.486Z,79.12
2022-08-11T05:11:24.629Z,76.70
2022-08-11T05:12:25.167Z,77.18
2022-08-11T05:13:24.902Z,76.54
2022-08-11T05:14:25.656Z,74.93
2022-08-11T05:15:25.278Z,73.64
2022-08-11T05:16:26.153Z,81.86
2022-08-11T05:17:25.719Z,74.28
2022-08-11T05:18:25.854Z,73.48
2022-08-11T05:19:26.093Z,74.60
2022-08-11T05:20:26.672Z,75.89
2022-08-11T05:21:26.432Z,77.50
2022-08-11T05:22:26.544Z,75.73
2022-08-11T05:23:27.168Z,73.48
2022-08-11T05:24:26.886Z,73.15
2022-08-11T05:26:25.380Z,75.57
2022-08-11T05:26:46.285Z,76.70
2022-08-11T05:27:29.161Z,81.37
2022-08-11T05:28:27.766Z,77.18
2022-08-11T05:29:27.870Z,75.25
2022-08-11T05:30:28.108Z,74.60
2022-08-11T05:31:28.240Z,76.86
2022-08-11T05:32:28.377Z,77.83
2022-08-11T05:33:28.568Z,76.05
2022-08-11T05:34:28.701Z,75.73
2022-08-11T05:36:00.031Z,75.09
2022-08-11T05:36:30.080Z,75.57
2022-08-11T05:37:29.205Z,80.73
2022-08-11T05:38:29.350Z,74.93
2022-08-11T05:39:33.889Z,74.77
2022-08-11T05:40:30.727Z,76.22
2022-08-11T05:41:30.665Z,73.64
2022-08-11T05:42:30.722Z,77.83
2022-08-11T05:43:31.168Z,74.93
2022-08-11T05:44:30.511Z,77.34
2022-08-11T05:46:02.929Z,73.64
2022-08-11T05:46:31.771Z,75.41
2022-08-11T05:47:30.994Z,76.86
2022-08-11T05:48:31.135Z,74.60
2022-08-11T05:49:31.834Z,75.89
2022-08-11T05:50:33.194Z,76.70
2022-08-11T05:51:31.702Z,80.24
2022-08-11T05:52:32.177Z,76.22
2022-08-11T05:53:43.668Z,75.57
2022-08-11T05:54:33.196Z,73.32
2022-08-11T05:55:33.168Z,75.41
2022-08-11T05:56:33.173Z,75.09
2022-08-11T05:57:42.343Z,72.35
2022-08-11T05:58:36.982Z,73.15
2022-08-11T05:59:34.007Z,77.50
2022-08-11T06:00:33.220Z,75.73
2022-08-11T06:01:33.442Z,77.18
2022-08-11T06:02:33.523Z,76.22
2022-08-11T06:03:33.698Z,74.93
2022-08-11T06:04:33.850Z,75.41
2022-08-11T06:05:37.213Z,77.83
2022-08-11T06:06:35.106Z,77.34
2022-08-11T06:07:49.627Z,75.41
2022-08-11T06:08:35.473Z,76.70
2022-08-11T06:09:34.592Z,74.60
2022-08-11T06:10:35.673Z,73.80
2022-08-11T06:11:43.190Z,75.57
2022-08-11T06:12:36.164Z,77.67
2022-08-11T06:13:35.333Z,77.99
2022-08-11T06:14:35.460Z,77.67
2022-08-11T06:15:35.707Z,75.89
2022-08-11T06:16:36.227Z,76.54
2022-08-11T06:17:39.091Z,75.57
2022-08-11T06:18:36.177Z,72.51
2022-08-11T06:19:36.319Z,75.09
2022-08-11T06:20:36.441Z,77.18
2022-08-11T06:21:36.567Z,77.34
2022-08-11T06:22:37.836Z,74.93
2022-08-11T06:23:36.903Z,74.77
2022-08-11T06:24:37.067Z,74.93
2022-08-11T06:25:37.183Z,75.41
2022-08-11T06:26:49.626Z,75.89
2022-08-11T06:27:40.196Z,80.89
2022-08-11T06:28:37.791Z,76.70
2022-08-11T06:29:47.911Z,75.41
2022-08-11T06:30:39.155Z,74.28
2022-08-11T06:31:38.388Z,75.09
2022-08-11T06:32:38.711Z,76.38
2022-08-11T06:33:38.725Z,76.70
2022-08-11T06:34:39.687Z,74.28
2022-08-11T06:35:39.052Z,71.70
2022-08-11T06:36:39.237Z,77.18
2022-08-11T06:37:39.378Z,79.28
2022-08-11T06:38:39.537Z,75.73
2022-08-11T06:39:39.722Z,76.86
2022-08-11T06:40:39.906Z,76.86
2022-08-11T06:41:40.069Z,74.60
2022-08-11T06:42:40.212Z,75.89
2022-08-11T06:43:40.372Z,74.44
2022-08-11T06:44:42.235Z,75.25
2022-08-11T06:45:40.698Z,74.93
2022-08-11T06:46:40.851Z,74.77
2022-08-11T06:47:40.979Z,74.93
2022-08-11T06:48:41.690Z,74.93
2022-08-11T06:49:41.299Z,75.25
2022-08-11T06:50:42.218Z,77.83
2022-08-11T06:51:41.819Z,74.12
2022-08-11T06:52:42.266Z,75.57
2022-08-11T06:53:41.933Z,71.87
2022-08-11T06:54:43.690Z,76.70
2022-08-11T06:55:56.597Z,74.60
2022-08-11T06:56:43.651Z,74.93
2022-08-11T06:57:43.211Z,74.93
2022-08-11T06:58:43.099Z,78.31
2022-08-11T06:59:44.296Z,73.80
2022-08-11T07:00:43.432Z,75.09
2022-08-11T07:01:43.664Z,74.44
2022-08-11T07:02:43.755Z,74.28
2022-08-11T07:03:44.696Z,72.51
2022-08-11T07:04:44.102Z,80.89
2022-08-11T07:05:44.267Z,73.15
2022-08-11T07:06:50.886Z,75.09
2022-08-11T07:07:45.547Z,74.12
2022-08-11T07:08:44.781Z,74.93
2022-08-11T07:09:44.949Z,73.96
2022-08-11T07:10:45.086Z,73.48
2022-08-11T07:11:45.320Z,75.73
2022-08-11T07:12:45.480Z,74.28
2022-08-11T07:13:46.205Z,74.60
2022-08-11T07:14:45.861Z,74.44
2022-08-11T07:16:11.643Z,73.15
2022-08-11T07:16:47.702Z,73.80
2022-08-11T07:17:47.209Z,74.77
2022-08-11T07:18:47.200Z,72.83
2022-08-11T07:19:46.611Z,76.22
2022-08-11T07:20:46.769Z,74.77
2022-08-11T07:22:03.157Z,75.57
2022-08-11T07:22:48.049Z,73.96
2022-08-11T07:23:47.713Z,73.15
2022-08-11T07:25:01.457Z,71.38
2022-08-11T07:25:49.228Z,77.67
2022-08-11T07:26:47.833Z,74.12
2022-08-11T07:27:48.003Z,74.28
2022-08-11T07:28:48.216Z,72.83
2022-08-11T07:29:48.370Z,73.64
2022-08-11T07:30:48.539Z,73.96
2022-08-11T07:31:50.209Z,70.74
2022-08-11T07:32:49.707Z,75.25
2022-08-11T07:34:05.516Z,77.67
2022-08-11T07:34:50.714Z,72.35
2022-08-11T07:35:49.347Z,71.87
2022-08-11T07:36:49.530Z,72.35
2022-08-11T07:37:50.209Z,73.96
2022-08-11T07:38:50.904Z,73.64
2022-08-11T07:39:50.101Z,75.09
2022-08-11T07:40:50.192Z,71.87
2022-08-11T07:41:51.221Z,73.80
2022-08-11T07:42:50.503Z,73.96
2022-08-11T07:43:50.690Z,70.58
2022-08-11T07:44:50.863Z,74.12
2022-08-11T07:45:51.712Z,76.38
2022-08-11T07:46:52.215Z,72.83
2022-08-11T07:47:51.385Z,74.77
2022-08-11T07:48:51.562Z,72.19
2022-08-11T07:49:52.227Z,73.32
2022-08-11T07:50:56.018Z,76.05
2022-08-11T07:51:53.092Z,83.95
2022-08-11T07:52:52.226Z,72.35
2022-08-11T07:53:58.748Z,74.44
2022-08-11T07:54:53.617Z,73.64
2022-08-11T07:55:53.716Z,72.83
2022-08-11T07:56:54.732Z,73.80
2022-08-11T07:58:14.304Z,72.83
2022-08-11T07:58:59.228Z,74.77
2022-08-11T08:00:03.491Z,72.35
2022-08-11T08:00:54.809Z,73.64
2022-08-11T08:01:53.979Z,75.89
2022-08-11T08:02:54.726Z,73.48
2022-08-11T08:03:55.221Z,75.41
2022-08-11T08:04:54.469Z,70.42
2022-08-11T08:05:54.656Z,72.35
2022-08-11T08:06:54.809Z,72.83
2022-08-11T08:07:55.727Z,73.80
2022-08-11T08:08:55.175Z,74.12
2022-08-11T08:09:55.343Z,71.87
2022-08-11T08:10:55.469Z,76.05
2022-08-11T08:11:55.740Z,73.32
2022-08-11T08:12:55.773Z,73.48
2022-08-11T08:13:56.725Z,74.93
2022-08-11T08:14:56.097Z,76.38
2022-08-11T08:15:56.256Z,74.12
2022-08-11T08:16:56.505Z,76.05
2022-08-11T08:18:09.439Z,74.60
2022-08-11T08:18:58.729Z,71.70
2022-08-11T08:19:57.734Z,73.64
2022-08-11T08:20:58.236Z,70.74
2022-08-11T08:22:04.381Z,72.19
2022-08-11T08:22:58.585Z,72.99
2022-08-11T08:23:57.790Z,72.67
2022-08-11T08:24:57.933Z,70.74
2022-08-11T08:25:58.124Z,74.60
2022-08-11T08:26:58.282Z,72.51
2022-08-11T08:27:58.427Z,72.99
2022-08-11T08:28:59.232Z,71.22
2022-08-11T08:29:59.729Z,73.64
2022-08-11T08:30:58.984Z,71.70
2022-08-11T08:31:59.215Z,71.87
2022-08-11T08:32:59.427Z,70.74
2022-08-11T08:33:59.562Z,76.05
2022-08-11T08:34:59.710Z,73.15
2022-08-11T08:35:59.856Z,76.54
2022-08-11T08:37:00.008Z,77.50
2022-08-11T08:38:00.743Z,74.60
2022-08-11T08:39:00.407Z,73.64
2022-08-11T08:40:00.574Z,72.67
2022-08-11T08:41:01.246Z,71.87
2022-08-11T08:42:01.259Z,72.83
2022-08-11T08:43:01.038Z,73.80
2022-08-11T08:44:27.366Z,73.64
2022-08-11T08:45:03.353Z,70.58
2022-08-11T08:46:01.607Z,72.83
2022-08-11T08:47:01.792Z,75.57
2022-08-11T08:48:02.739Z,70.25
2022-08-11T08:49:02.146Z,76.70
2022-08-11T08:50:02.322Z,72.99
2022-08-11T08:51:02.515Z,73.48
2022-08-11T08:52:29.473Z,76.05
2022-08-11T08:53:05.754Z,74.60
2022-08-11T08:54:03.001Z,73.32
2022-08-11T08:55:03.162Z,74.28
2022-08-11T08:56:03.331Z,74.12
2022-08-11T08:57:03.489Z,71.54
2022-08-11T08:58:03.629Z,72.67
2022-08-11T08:59:03.796Z,73.96
2022-08-11T09:00:04.747Z,74.44
2022-08-11T09:01:04.169Z,73.80
2022-08-11T09:02:04.758Z,71.22
2022-08-11T09:03:22.923Z,75.89
2022-08-11T09:04:11.444Z,68.00
2022-08-11T09:05:06.938Z,69.13
2022-08-11T09:06:05.170Z,70.58
2022-08-11T09:07:05.292Z,72.99
2022-08-11T09:08:05.762Z,75.73
2022-08-11T09:09:05.636Z,73.64
2022-08-11T09:10:06.749Z,72.35
2022-08-11T09:11:09.414Z,72.19
2022-08-11T09:12:07.137Z,72.03
2022-08-11T09:13:07.250Z,73.32
2022-08-11T09:14:10.430Z,72.51
2022-08-11T09:15:09.324Z,74.93
2022-08-11T09:16:07.262Z,78.15
2022-08-11T09:17:07.161Z,75.73
2022-08-11T09:18:07.319Z,73.80
2022-08-11T09:19:07.455Z,72.83
2022-08-11T09:20:08.692Z,74.93
2022-08-11T09:21:07.920Z,72.19
2022-08-11T09:22:08.754Z,75.89
2022-08-11T09:24:17.033Z,71.38
2022-08-11T09:25:10.612Z,72.99
2022-08-11T09:26:09.268Z,73.96
2022-08-11T09:27:09.755Z,77.50
2022-08-11T09:28:09.265Z,73.64
2022-08-11T09:29:09.770Z,72.67
2022-08-11T09:30:09.515Z,71.06
2022-08-11T09:31:09.691Z,73.32
2022-08-11T09:32:09.836Z,71.87
2022-08-11T09:33:09.978Z,75.25
2022-08-11T09:34:10.161Z,76.70
2022-08-11T09:35:11.256Z,73.15
2022-08-11T09:36:10.481Z,73.32
2022-08-11T09:37:10.627Z,71.06
2022-08-11T09:38:10.789Z,72.19
2022-08-11T09:39:11.071Z,73.64
2022-08-11T09:40:11.119Z,83.14
2022-08-11T09:41:11.772Z,75.89
2022-08-11T09:42:16.639Z,71.87
2022-08-11T09:43:12.790Z,71.87
2022-08-11T09:44:12.760Z,73.96
2022-08-11T09:45:12.212Z,71.70
2022-08-11T09:46:12.380Z,73.48
2022-08-11T09:47:12.508Z,74.12
2022-08-11T09:48:13.259Z,73.15
2022-08-11T09:49:13.004Z,75.57
2022-08-11T09:50:13.228Z,73.15
2022-08-11T09:51:13.775Z,74.77
2022-08-11T09:52:14.267Z,72.99
2022-08-11T09:53:36.083Z,72.99
2022-08-11T09:54:15.964Z,73.64
2022-08-11T09:55:14.762Z,72.83
2022-08-11T09:56:14.418Z,77.50
2022-08-11T09:57:14.546Z,72.99
2022-08-11T09:58:42.432Z,71.22
2022-08-11T09:59:15.911Z,72.35
2022-08-11T10:00:15.510Z,79.60
2022-08-11T10:01:15.339Z,73.48
2022-08-11T10:02:15.551Z,77.18
2022-08-11T10:03:15.696Z,74.60
2022-08-11T10:04:15.821Z,72.83
2022-08-11T10:05:15.961Z,73.64
2022-08-11T10:06:16.110Z,72.67
2022-08-11T10:07:16.360Z,72.35
2022-08-11T10:08:17.278Z,77.18
2022-08-11T10:09:16.685Z,70.74
2022-08-11T10:10:17.813Z,72.51
2022-08-11T10:11:17.789Z,69.29
2022-08-11T10:12:18.291Z,72.03
2022-08-11T10:14:31.260Z,70.74
2022-08-11T10:14:33.368Z,72.35
2022-08-11T10:15:18.908Z,71.38
2022-08-11T10:16:18.021Z,76.54
2022-08-11T10:17:18.175Z,71.54
2022-08-11T10:18:18.381Z,72.67
2022-08-11T10:19:18.544Z,73.32
2022-08-11T10:20:22.681Z,73.32
2022-08-11T10:21:20.880Z,73.32
2022-08-11T10:22:20.100Z,75.09
2022-08-11T10:23:19.346Z,73.64
2022-08-11T10:24:19.504Z,73.80
2022-08-11T10:25:20.131Z,72.19
2022-08-11T10:26:20.778Z,72.83
2022-08-11T10:27:20.787Z,72.35
2022-08-11T10:28:36.369Z,74.12
2022-08-11T10:29:21.370Z,73.96
2022-08-11T10:30:21.500Z,71.38
2022-08-11T10:31:20.617Z,74.93
2022-08-11T10:32:21.277Z,73.15
2022-08-11T10:33:37.071Z,73.32
2022-08-11T10:34:22.135Z,73.80
2022-08-11T10:35:21.363Z,72.83
2022-08-11T10:36:21.516Z,74.93
2022-08-11T10:37:21.704Z,74.12
2022-08-11T10:38:21.890Z,74.28
2022-08-11T10:39:22.130Z,73.48
2022-08-11T10:40:22.784Z,72.67
2022-08-11T10:41:22.414Z,74.12
2022-08-11T10:42:41.440Z,73.32
2022-08-11T10:44:02.403Z,72.83
2022-08-11T10:44:24.022Z,73.32
2022-08-11T10:45:23.785Z,77.02
2022-08-11T10:46:29.563Z,72.83
2022-08-11T10:47:24.418Z,74.44
2022-08-11T10:48:23.569Z,71.54
2022-08-11T10:49:23.802Z,76.86
2022-08-11T10:50:23.967Z,71.06
2022-08-11T10:51:48.005Z,73.32
2022-08-11T10:52:25.266Z,73.64
2022-08-11T10:53:24.385Z,70.58
2022-08-11T10:54:24.574Z,72.99
2022-08-11T10:55:24.807Z,75.73
2022-08-11T10:56:24.945Z,74.12
2022-08-11T10:57:25.115Z,72.19
2022-08-11T10:58:25.325Z,75.73
2022-08-11T10:59:25.448Z,71.06
2022-08-11T11:00:25.644Z,73.64
2022-08-11T11:01:26.450Z,75.57
2022-08-11T11:02:25.895Z,72.67
2022-08-11T11:03:26.076Z,73.15
2022-08-11T11:04:26.802Z,72.35
2022-08-11T11:05:26.807Z,72.99
2022-08-11T11:06:29.329Z,70.09
2022-08-11T11:07:26.770Z,71.70
2022-08-11T11:08:27.806Z,72.99
2022-08-11T11:09:27.797Z,72.67
2022-08-11T11:10:27.313Z,73.48
2022-08-11T11:11:27.331Z,72.67
2022-08-11T11:12:27.815Z,73.64
2022-08-11T11:13:27.714Z,75.73
2022-08-11T11:14:27.840Z,72.35
2022-08-11T11:15:27.999Z,77.50
2022-08-11T11:16:28.800Z,72.67
2022-08-11T11:17:28.333Z,75.89
2022-08-11T11:18:28.495Z,69.93
2022-08-11T11:19:28.605Z,71.70
2022-08-11T11:20:36.587Z,73.96
2022-08-11T11:21:30.806Z,72.99
2022-08-11T11:22:29.192Z,70.42
2022-08-11T11:23:29.363Z,78.15
2022-08-11T11:24:30.302Z,72.35
2022-08-11T11:25:30.331Z,76.54
2022-08-11T11:26:29.796Z,74.12
2022-08-11T11:27:30.805Z,79.92
2022-08-11T11:28:30.169Z,79.60
2022-08-11T11:29:30.323Z,72.51
2022-08-11T11:30:31.310Z,73.32
2022-08-11T11:31:30.666Z,74.60
2022-08-11T11:32:30.819Z,71.38
2022-08-11T11:33:30.955Z,72.35
2022-08-11T11:34:31.823Z,71.22
2022-08-11T11:35:31.806Z,70.90
2022-08-11T11:36:32.310Z,73.48
2022-08-11T11:37:31.815Z,73.80
2022-08-11T11:38:31.755Z,73.15
2022-08-11T11:39:32.345Z,74.93
2022-08-11T11:40:32.854Z,74.77
2022-08-11T11:41:32.225Z,70.42
2022-08-11T11:42:32.480Z,71.54
2022-08-11T11:43:32.584Z,73.80
2022-08-11T11:44:33.376Z,75.89
2022-08-11T11:45:32.904Z,73.64
2022-08-11T11:46:33.002Z,72.67
2022-08-11T11:47:34.329Z,71.38
2022-08-11T11:48:34.314Z,71.38
2022-08-11T11:49:33.518Z,72.35
2022-08-11T11:50:34.316Z,71.70
2022-08-11T11:51:33.807Z,71.54
2022-08-11T11:52:34.067Z,77.02
2022-08-11T11:53:34.116Z,73.15
2022-08-11T11:54:34.234Z,73.15
2022-08-11T11:55:34.495Z,72.51
2022-08-11T11:56:35.326Z,72.35
2022-08-11T11:57:35.317Z,72.67
2022-08-11T11:58:34.920Z,72.35
2022-08-11T11:59:35.337Z,71.70
2022-08-11T12:00:35.370Z,76.05
2022-08-11T12:01:35.319Z,78.79
2022-08-11T12:02:35.460Z,76.38
2022-08-11T12:03:36.671Z,71.70
2022-08-11T12:04:35.801Z,75.09
2022-08-11T12:05:35.954Z,70.58
2022-08-11T12:06:37.608Z,71.06
2022-08-11T12:07:36.336Z,76.05
2022-08-11T12:08:36.473Z,71.87
2022-08-11T12:09:36.629Z,77.18
2022-08-11T12:10:37.349Z,82.50
2022-08-11T12:11:36.961Z,74.93
2022-08-11T12:12:37.111Z,78.96
2022-08-11T12:13:37.823Z,72.67
2022-08-11T12:14:37.485Z,72.19
2022-08-11T12:16:05.369Z,73.64
2022-08-11T12:16:38.770Z,77.83
2022-08-11T12:17:38.183Z,73.64
2022-08-11T12:18:38.827Z,79.76
2022-08-11T12:19:38.337Z,74.93
2022-08-11T12:20:39.350Z,71.70
2022-08-11T12:21:39.325Z,72.83
2022-08-11T12:22:39.330Z,71.06
2022-08-11T12:23:38.849Z,74.12
2022-08-11T12:24:39.340Z,73.15
2022-08-11T12:25:39.184Z,74.12
2022-08-11T12:26:39.360Z,77.18
2022-08-11T12:27:40.505Z,69.61
2022-08-11T12:28:39.688Z,73.64
2022-08-11T12:29:41.387Z,75.41
2022-08-11T12:30:40.104Z,70.25
2022-08-11T12:31:40.831Z,70.74
2022-08-11T12:32:40.765Z,72.19
2022-08-11T12:33:40.566Z,78.79
2022-08-11T12:34:40.797Z,70.90
2022-08-11T12:35:40.873Z,71.87
2022-08-11T12:36:42.097Z,69.45
2022-08-11T12:37:41.769Z,73.15
2022-08-11T12:38:41.567Z,72.19
2022-08-11T12:40:10.689Z,73.48
2022-08-11T12:41:13.714Z,73.32
2022-08-11T12:41:44.223Z,72.35
2022-08-11T12:42:42.360Z,71.38
2022-08-11T12:43:43.368Z,74.60
2022-08-11T12:44:43.340Z,78.47
2022-08-11T12:45:43.001Z,79.28
2022-08-11T12:46:43.170Z,75.73
2022-08-11T12:47:43.334Z,73.48
2022-08-11T12:49:00.986Z,72.03
2022-08-11T12:49:45.655Z,72.35
2022-08-11T12:50:44.849Z,75.09
2022-08-11T12:52:11.213Z,72.19
2022-08-11T12:52:45.219Z,71.22
2022-08-11T12:53:44.397Z,74.12
2022-08-11T12:54:45.337Z,75.73
2022-08-11T12:56:03.852Z,71.87